バロー の空港の天気 - METARとTAF

Barrow, Wiley Post-Will Rogers Memorial Airport ( PABR / BRW ) - アメリカ アラスカ州バロー
飛行場実況気象(Metar)
観測時間11/26 22:35 AKST (11/27 07:35 UTC)
風向・風速南南東 2m/s
視程10km以上
天気現象
全天の8割程度の雲 雲底高度 820m
気温-18.9℃
湿度79%
気圧1035hPa
METARPABR 270735Z AUTO 16003KT 10SM BKN027 M19/M22 A3057 RMK AO2 T11891217 TSNO
過去の天気等 Google飛行場航空写真 Wunderground天気予報

過去48時間のMETAR

飛行場予報(TAF)
発表時間: 11/26 20:20 AKST (11/27 05:20 UTC)
予報対象時間: 26日21時 AKST ~ 27日21時 AKST
風向・風速南南東 3m/s
視程6440m
天気現象弱い雪 もや
全天を覆う雲 雲底高度 760m
27日0時 AKST から
風向・風速不定 2m/s
視程10km以上
天気現象弱い雪 もや
全天を覆う雲 雲底高度 760m
27日9時 AKST から
風向・風速南南西 4m/s
視程10km以上
天気現象弱い雪
全天の4割程度の雲 雲底高度 760m
全天を覆う雲 雲底高度 1520m
PABR 270520Z 2706/2806 16006KT 4SM -SN BR OVC025
FM270900 VRB04KT 6SM -SN BR OVC025
FM271800 21007KT P6SM -SN SCT025 OVC050